Time;durP1;ratioP1;P1;durP2;ratioP2;P2;SDS_P1;SDS_P2;PMS_P1;PMS_P2;Temp;Humidity;BMP_temperature;BMP_pressure;BME280_temperature;BME280_humidity;BME280_pressure;Samples;Min_cycle;Max_cycle;Signal;HPM_P1;HPM_P2
2023/12/19 00:03:20;;;;;;;14.88;8.70;;;;;;;7.50;93.54;101707.59;8313947;28;20036;-55
2023/12/19 00:07:21;;;;;;;17.88;10.35;;;;;;;7.53;94.97;101704.72;8310600;28;20033;-56
2023/12/19 00:11:21;;;;;;;21.42;12.32;;;;;;;7.54;94.75;101690.28;8309911;28;20037;-55
2023/12/19 00:15:22;;;;;;;18.63;10.38;;;;;;;7.39;92.79;101704.69;8312646;28;20493;-55
2023/12/19 00:19:22;;;;;;;21.95;11.07;;;;;;;7.30;93.47;101699.84;8269969;28;20051;-55
2023/12/19 00:23:23;;;;;;;21.38;12.25;;;;;;;7.27;93.74;101686.59;8267137;28;20268;-55
2023/12/19 00:27:23;;;;;;;20.13;10.82;;;;;;;7.26;92.89;101674.06;8270001;28;20037;-55
2023/12/19 00:31:26;;;;;;;16.73;10.93;;;;;;;7.29;92.87;101668.50;8275211;28;20225;-52
2023/12/19 00:35:26;;;;;;;20.17;11.63;;;;;;;7.36;93.37;101675.28;8277387;28;20067;-54
2023/12/19 00:39:28;;;;;;;21.02;11.07;;;;;;;7.39;93.71;101655.38;8274724;28;20052;-55
2023/12/19 00:43:29;;;;;;;21.33;10.68;;;;;;;7.40;93.89;101665.19;8313259;28;20037;-58
2023/12/19 00:47:30;;;;;;;21.33;12.15;;;;;;;7.38;93.79;101665.28;8372543;28;20114;-57
2023/12/19 00:51:30;;;;;;;20.60;10.60;;;;;;;7.39;93.43;101653.56;8375126;28;20556;-57
2023/12/19 00:55:31;;;;;;;21.77;10.60;;;;;;;7.41;93.50;101648.09;8372411;28;20617;-54
2023/12/19 00:59:31;;;;;;;16.85;10.27;;;;;;;7.41;93.89;101651.63;8371044;28;20116;-55
2023/12/19 01:03:33;;;;;;;14.95;8.98;;;;;;;7.36;93.93;101647.50;8375561;28;20048;-57
2023/12/19 01:07:33;;;;;;;17.58;9.50;;;;;;;7.38;94.29;101629.47;8372037;28;20029;-56
2023/12/19 01:11:33;;;;;;;17.15;9.57;;;;;;;7.44;94.46;101635.31;8375022;28;20039;-56
2023/12/19 01:15:34;;;;;;;18.85;10.40;;;;;;;7.47;95.08;101618.97;8374078;28;20398;-55
2023/12/19 01:19:34;;;;;;;13.82;8.77;;;;;;;7.58;94.58;101619.19;8371754;28;20071;-55
2023/12/19 01:23:35;;;;;;;19.38;9.60;;;;;;;7.63;95.61;101610.84;8371204;28;20052;-56
2023/12/19 01:27:35;;;;;;;12.45;7.35;;;;;;;7.73;95.90;101610.19;8373738;28;20116;-56
2023/12/19 01:31:36;;;;;;;11.38;7.65;;;;;;;7.81;95.96;101618.63;8373715;28;20051;-55
2023/12/19 01:35:37;;;;;;;13.50;7.68;;;;;;;7.84;96.63;101614.88;8371419;28;20040;-54
2023/12/19 01:39:37;;;;;;;11.20;7.38;;;;;;;7.87;97.04;101614.69;8373474;28;20364;-56
2023/12/19 01:43:39;;;;;;;11.73;7.20;;;;;;;7.92;97.43;101605.34;8372546;28;20106;-55
2023/12/19 01:47:43;;;;;;;8.98;6.35;;;;;;;7.99;97.41;101612.06;8325743;28;20133;-57
2023/12/19 01:51:44;;;;;;;13.43;7.57;;;;;;;7.91;96.55;101614.41;8276153;28;20048;-56
2023/12/19 01:55:44;;;;;;;12.55;8.05;;;;;;;7.92;96.75;101605.34;8270788;28;20533;-56
2023/12/19 01:59:45;;;;;;;14.32;7.90;;;;;;;7.86;95.71;101607.56;8274047;28;20067;-55
2023/12/19 02:03:47;;;;;;;12.98;8.23;;;;;;;7.83;96.00;101605.94;8345044;22;20537;-92
2023/12/19 02:07:48;;;;;;;13.63;8.23;;;;;;;7.82;96.03;101606.91;8328487;22;20103;-54
2023/12/19 02:11:49;;;;;;;16.63;8.57;;;;;;;7.74;96.47;101606.50;8286422;28;20033;-56
2023/12/19 02:15:49;;;;;;;12.32;8.05;;;;;;;7.73;96.21;101587.75;8331287;28;20136;-55
2023/12/19 02:19:51;;;;;;;11.07;7.00;;;;;;;7.80;96.76;101583.72;8403633;28;20056;-55
2023/12/19 02:23:52;;;;;;;12.15;7.32;;;;;;;7.86;97.02;101576.13;8403553;28;20544;-55
2023/12/19 02:27:52;;;;;;;11.82;6.95;;;;;;;7.92;96.95;101577.56;8398946;28;20099;-57
2023/12/19 02:31:53;;;;;;;11.13;6.82;;;;;;;7.90;97.68;101572.28;8403657;28;20075;-57
2023/12/19 02:35:53;;;;;;;14.85;6.97;;;;;;;7.97;98.28;101565.50;8404555;28;20501;-56
2023/12/19 02:39:54;;;;;;;10.07;5.57;;;;;;;8.09;98.43;101559.34;8402486;28;20040;-56
2023/12/19 02:43:54;;;;;;;8.95;5.13;;;;;;;8.17;98.56;101545.38;8405043;28;20052;-56
2023/12/19 02:47:54;;;;;;;8.32;5.15;;;;;;;8.32;98.07;101546.25;8399497;28;20047;-58
2023/12/19 02:51:55;;;;;;;7.60;4.53;;;;;;;8.41;97.62;101534.84;8402623;28;20064;-55
2023/12/19 02:55:55;;;;;;;7.20;4.85;;;;;;;8.44;97.74;101534.63;8404820;28;20036;-58
2023/12/19 02:59:56;;;;;;;5.90;3.63;;;;;;;8.44;98.32;101510.38;8402229;28;20040;-57
2023/12/19 03:03:56;;;;;;;5.03;3.40;;;;;;;8.46;98.62;101508.47;8402282;28;20041;-57
2023/12/19 03:07:57;;;;;;;7.43;3.70;;;;;;;8.48;98.73;101501.16;8404282;28;20086;-58
2023/12/19 03:12:03;;;;;;;4.50;3.33;;;;;;;8.48;98.93;101490.38;8386001;28;20810;-57
2023/12/19 03:16:04;;;;;;;4.88;3.22;;;;;;;8.56;98.74;101482.59;8377709;28;20028;-56
2023/12/19 03:20:06;;;;;;;7.95;3.50;;;;;;;8.59;98.34;101467.09;8348783;28;20037;-56
2023/12/19 03:24:06;;;;;;;4.20;2.50;;;;;;;8.75;96.77;101461.53;8311328;28;20533;-56
2023/12/19 03:28:06;;;;;;;3.22;2.42;;;;;;;8.80;95.80;101449.47;8305251;28;20880;-52
2023/12/19 03:32:08;;;;;;;2.92;2.20;;;;;;;8.84;95.14;101455.50;8284646;28;20410;-55
2023/12/19 03:36:08;;;;;;;4.78;2.60;;;;;;;8.85;95.08;101457.22;8312924;28;20331;-55
2023/12/19 03:40:09;;;;;;;3.35;2.55;;;;;;;8.70;95.78;101469.06;8303289;28;20156;-55
2023/12/19 03:44:10;;;;;;;5.63;3.05;;;;;;;8.68;96.32;101473.69;8302885;28;20482;-55
2023/12/19 03:48:10;;;;;;;3.78;2.60;;;;;;;8.72;95.96;101454.50;8299792;28;20043;-56
2023/12/19 03:52:11;;;;;;;4.97;2.88;;;;;;;8.73;96.39;101453.56;8339303;28;20674;-55
2023/12/19 03:56:11;;;;;;;4.03;2.90;;;;;;;8.91;96.11;101444.16;8353821;28;20534;-55
2023/12/19 04:00:12;;;;;;;4.18;3.08;;;;;;;8.99;95.61;101438.22;8348032;28;20044;-55
2023/12/19 04:04:13;;;;;;;3.05;2.47;;;;;;;9.15;94.61;101428.09;8349226;28;20405;-55
2023/12/19 04:08:14;;;;;;;3.78;2.75;;;;;;;9.18;94.71;101422.50;8352398;28;20031;-54
2023/12/19 04:12:14;;;;;;;4.88;2.40;;;;;;;9.20;94.77;101417.81;8330168;28;20756;-55
2023/12/19 04:16:14;;;;;;;3.65;3.00;;;;;;;9.12;94.32;101429.16;8351084;28;20305;-55
2023/12/19 04:20:15;;;;;;;5.35;3.00;;;;;;;9.06;95.61;101432.28;8350141;28;20041;-55
2023/12/19 04:24:16;;;;;;;3.55;2.75;;;;;;;9.15;95.50;101433.50;8396604;28;20043;-56
2023/12/19 04:28:17;;;;;;;4.32;2.25;;;;;;;9.28;94.39;101412.75;8409141;28;20036;-55
2023/12/19 04:32:17;;;;;;;3.55;2.40;;;;;;;9.31;94.63;101409.84;8406218;28;20066;-57
2023/12/19 04:36:18;;;;;;;2.85;2.40;;;;;;;9.32;94.75;101414.25;8398079;28;20080;-59
2023/12/19 04:40:19;;;;;;;3.45;2.08;;;;;;;9.31;95.36;101388.25;8407099;28;20040;-58
2023/12/19 04:44:19;;;;;;;5.22;2.40;;;;;;;9.34;95.13;101388.03;8409143;28;20120;-57
2023/12/19 04:48:20;;;;;;;5.55;2.90;;;;;;;9.19;97.54;101395.41;8406079;28;20032;-55
2023/12/19 04:52:20;;;;;;;5.53;2.78;;;;;;;9.09;99.87;101390.78;8390028;28;20048;-55
2023/12/19 04:56:21;;;;;;;3.60;2.40;;;;;;;9.13;100.00;101386.88;8408396;28;20063;-57
2023/12/19 05:00:21;;;;;;;3.47;2.38;;;;;;;9.04;100.00;101380.31;8405043;28;20045;-58
2023/12/19 05:04:21;;;;;;;5.63;3.05;;;;;;;9.02;100.00;101378.69;8408432;28;20407;-56
2023/12/19 05:08:22;;;;;;;5.30;3.20;;;;;;;9.00;100.00;101369.84;8406451;28;20641;-56
2023/12/19 05:12:24;;;;;;;4.18;3.17;;;;;;;8.95;100.00;101361.22;8403490;28;20489;-55
2023/12/19 05:16:24;;;;;;;4.38;2.80;;;;;;;9.02;100.00;101357.09;8404435;28;20152;-56
2023/12/19 05:20:24;;;;;;;3.65;2.67;;;;;;;9.09;100.00;101353.00;8405450;28;20039;-56
2023/12/19 05:24:27;;;;;;;4.72;2.80;;;;;;;9.08;100.00;101351.25;8366503;28;20338;-53
2023/12/19 05:28:28;;;;;;;4.90;3.00;;;;;;;9.04;100.00;101349.78;8352415;28;20125;-55
2023/12/19 05:32:28;;;;;;;3.47;2.80;;;;;;;9.04;100.00;101338.97;8349749;28;20044;-53
2023/12/19 05:36:33;;;;;;;3.35;2.50;;;;;;;9.03;100.00;101326.47;8351798;28;20150;-53
2023/12/19 05:40:35;;;;;;;4.63;3.03;;;;;;;9.08;100.00;101319.78;8348661;28;20234;-53
2023/12/19 05:44:35;;;;;;;3.95;2.85;;;;;;;9.14;100.00;101313.06;8351375;28;20044;-53
2023/12/19 05:48:35;;;;;;;5.15;2.35;;;;;;;9.27;100.00;101303.13;8329295;28;20105;-55
2023/12/19 05:52:36;;;;;;;4.20;2.40;;;;;;;9.29;100.00;101284.94;8386564;28;20037;-54
2023/12/19 05:56:36;;;;;;;5.72;3.05;;;;;;;9.29;100.00;101271.47;8405862;28;20039;-54
2023/12/19 06:00:37;;;;;;;5.95;2.97;;;;;;;9.38;100.00;101268.94;8405400;28;20050;-56
2023/12/19 06:04:37;;;;;;;2.13;1.20;;;;;;;9.56;99.91;101277.50;8404866;28;20512;-57
2023/12/19 06:08:38;;;;;;;2.40;1.10;;;;;;;9.50;100.00;101278.84;8403399;28;20040;-56
2023/12/19 06:12:39;;;;;;;1.23;0.82;;;;;;;9.49;99.70;101270.84;8404179;28;20039;-55
2023/12/19 06:16:39;;;;;;;1.75;0.98;;;;;;;9.54;98.52;101265.94;8403729;28;20040;-54
2023/12/19 06:20:42;;;;;;;1.58;1.00;;;;;;;9.56;98.14;101278.38;8402659;28;20075;-56
2023/12/19 06:24:45;;;;;;;1.23;0.82;;;;;;;9.59;97.31;101288.06;8405050;28;20037;-55
2023/12/19 06:28:46;;;;;;;0.98;0.80;;;;;;;9.64;96.57;101286.72;8408828;28;20040;-56
2023/12/19 06:32:47;;;;;;;0.80;0.52;;;;;;;9.70;96.05;101280.03;8400308;28;20041;-56
2023/12/19 06:36:47;;;;;;;2.25;0.60;;;;;;;9.73;95.14;101286.03;8404031;28;20524;-55
2023/12/19 06:40:48;;;;;;;1.52;0.70;;;;;;;9.84;94.39;101275.28;8381743;28;20040;-57
2023/12/19 06:44:48;;;;;;;0.70;0.60;;;;;;;9.89;94.34;101280.34;8393290;28;20048;-54
2023/12/19 06:48:49;;;;;;;0.85;0.60;;;;;;;9.92;93.41;101293.59;8398635;28;20051;-56
2023/12/19 06:52:49;;;;;;;0.93;0.70;;;;;;;9.94;93.80;101284.41;8398366;28;20093;-54
2023/12/19 06:56:51;;;;;;;1.83;0.80;;;;;;;9.95;94.07;101271.78;8383513;28;20040;-54
2023/12/19 07:00:51;;;;;;;3.10;0.60;;;;;;;10.04;93.59;101268.34;8399848;28;20075;-56
2023/12/19 07:04:52;;;;;;;1.50;0.80;;;;;;;10.08;93.42;101264.47;8399892;28;20044;-55
2023/12/19 07:08:52;;;;;;;1.13;0.70;;;;;;;10.15;92.67;101263.00;8401274;28;20051;-55
2023/12/19 07:12:53;;;;;;;3.85;0.80;;;;;;;10.06;93.46;101258.28;8395896;28;20075;-55
2023/12/19 07:16:53;;;;;;;3.40;0.98;;;;;;;10.15;93.54;101254.88;8398578;28;20032;-56
2023/12/19 07:20:54;;;;;;;2.65;0.90;;;;;;;10.19;93.15;101239.31;8403037;28;20048;-55
2023/12/19 07:24:55;;;;;;;2.95;0.93;;;;;;;10.16;93.60;101240.41;8399117;28;20043;-56
2023/12/19 07:28:58;;;;;;;1.50;1.00;;;;;;;10.27;93.54;101226.91;8400493;28;20119;-55
2023/12/19 07:32:59;;;;;;;3.58;1.30;;;;;;;10.30;93.02;101231.19;8399645;28;20498;-55
2023/12/19 07:37:00;;;;;;;3.63;1.48;;;;;;;10.24;93.09;101227.16;8399811;28;20490;-55
2023/12/19 07:41:00;;;;;;;3.60;1.40;;;;;;;10.27;92.53;101194.47;8408726;28;20387;-56
2023/12/19 07:45:02;;;;;;;5.82;1.23;;;;;;;10.26;92.57;101206.28;8391158;28;20145;-56
2023/12/19 07:49:03;;;;;;;3.78;1.38;;;;;;;10.20;93.29;101204.06;8408034;28;20378;-54
2023/12/19 07:53:03;;;;;;;2.30;1.40;;;;;;;10.20;92.56;101206.75;8411555;28;20037;-55
2023/12/19 07:57:04;;;;;;;7.40;1.92;;;;;;;10.24;92.35;101189.31;8416156;28;20057;-54
2023/12/19 08:01:04;;;;;;;6.55;2.45;;;;;;;10.16;92.33;101197.19;8407135;28;20541;-55
2023/12/19 08:05:05;;;;;;;2.45;1.80;;;;;;;10.14;92.57;101204.53;8406459;28;20059;-57
2023/12/19 08:09:10;;;;;;;3.58;1.85;;;;;;;10.07;93.40;101208.72;8386580;28;20032;-54
2023/12/19 08:13:11;;;;;;;7.72;2.30;;;;;;;10.11;93.10;101210.19;8408020;28;20059;-55
2023/12/19 08:17:12;;;;;;;4.15;2.33;;;;;;;10.10;93.16;101202.19;8406466;28;20032;-57
2023/12/19 08:21:12;;;;;;;5.07;2.20;;;;;;;10.03;94.00;101217.97;8406830;28;20098;-55
2023/12/19 08:25:13;;;;;;;3.25;1.90;;;;;;;10.06;93.64;101223.16;8409335;28;20047;-55
2023/12/19 08:29:14;;;;;;;2.53;1.70;;;;;;;10.07;93.26;101218.66;8404878;28;20175;-55
2023/12/19 08:33:15;;;;;;;4.60;2.10;;;;;;;10.06;94.01;101223.16;8412441;28;20040;-56
2023/12/19 08:37:15;;;;;;;5.15;2.45;;;;;;;10.10;94.36;101213.88;8405714;28;20049;-55
2023/12/19 08:41:16;;;;;;;5.55;2.40;;;;;;;10.17;94.68;101201.59;8403350;28;20118;-56
2023/12/19 08:45:18;;;;;;;3.90;2.78;;;;;;;10.27;94.13;101183.66;8407818;28;20255;-55
2023/12/19 08:49:19;;;;;;;3.47;1.73;;;;;;;10.28;94.20;101193.47;8407803;28;20033;-55
2023/12/19 08:53:19;;;;;;;4.07;1.88;;;;;;;10.40;94.18;101187.09;8407762;28;20032;-55
2023/12/19 08:57:19;;;;;;;4.47;1.83;;;;;;;10.44;93.54;101180.47;8399974;28;20032;-55
2023/12/19 09:01:20;;;;;;;2.65;1.42;;;;;;;10.56;92.75;101157.00;8408130;28;20051;-56
2023/12/19 09:05:21;;;;;;;2.53;2.05;;;;;;;10.48;93.75;101164.84;8403679;28;20521;-54
2023/12/19 09:09:22;;;;;;;3.00;1.67;;;;;;;10.59;94.67;101168.44;8404519;28;20062;-55
2023/12/19 09:13:22;;;;;;;4.75;2.00;;;;;;;10.82;95.21;101161.09;8401348;28;20434;-56
2023/12/19 09:17:23;;;;;;;5.03;1.27;;;;;;;11.02;93.99;101161.19;8408630;28;20044;-56
2023/12/19 09:21:24;;;;;;;4.55;1.40;;;;;;;11.12;93.51;101156.72;8406987;28;20046;-55
2023/12/19 09:25:24;;;;;;;2.90;0.80;;;;;;;11.21;92.96;101166.78;8411903;28;20036;-56
2023/12/19 09:29:27;;;;;;;3.17;1.50;;;;;;;11.23;92.44;101153.97;8400596;28;20047;-56
2023/12/19 09:33:28;;;;;;;6.25;1.30;;;;;;;11.29;92.35;101150.75;8411817;28;20480;-57
2023/12/19 09:37:28;;;;;;;5.53;1.20;;;;;;;11.27;92.49;101143.75;8402165;28;20035;-55
2023/12/19 09:41:29;;;;;;;5.18;1.50;;;;;;;11.31;92.29;101127.13;8405682;28;20977;-55
2023/12/19 09:45:29;;;;;;;4.95;1.50;;;;;;;11.39;92.59;101127.34;8388594;28;20048;-54
2023/12/19 09:49:39;;;;;;;7.78;1.60;;;;;;;11.49;91.67;101128.25;8406624;28;20330;-56
2023/12/19 09:53:39;;;;;;;5.20;1.80;;;;;;;11.43;91.95;101134.19;8405989;28;20062;-56
2023/12/19 09:57:40;;;;;;;4.95;1.45;;;;;;;11.44;92.03;101130.50;8403074;28;20048;-54
2023/12/19 10:01:42;;;;;;;9.52;1.48;;;;;;;11.42;91.64;101108.13;8403196;28;20045;-55
2023/12/19 10:05:44;;;;;;;8.48;1.70;;;;;;;11.49;91.25;101094.91;8405506;28;20055;-57
2023/12/19 10:09:55;;;;;;;7.55;1.35;;;;;;;11.36;91.63;101084.28;8405427;28;20032;-56
2023/12/19 10:14:09;;;;;;;5.20;1.30;;;;;;;11.35;92.10;101092.53;8402278;28;20048;-56
2023/12/19 10:18:12;;;;;;;4.53;1.58;;;;;;;11.37;92.36;101077.88;8401791;28;20551;-55
2023/12/19 10:22:19;;;;;;;7.00;1.30;;;;;;;11.54;90.34;101071.88;8407201;28;20562;-56
2023/12/19 10:26:27;;;;;;;3.97;1.15;;;;;;;11.51;89.87;101055.88;8411020;28;20405;-55
2023/12/19 10:30:28;;;;;;;4.03;1.20;;;;;;;11.56;89.13;101042.78;8406550;28;20033;-57
2023/12/19 10:34:28;;;;;;;1.17;0.70;;;;;;;11.50;88.83;101047.91;8403192;28;20083;-55
2023/12/19 10:38:29;;;;;;;4.22;0.80;;;;;;;11.47;87.52;101051.72;8404778;28;20067;-56
2023/12/19 10:42:29;;;;;;;5.10;0.98;;;;;;;11.37;87.89;101048.09;8408554;28;20139;-56
2023/12/19 10:46:31;;;;;;;4.80;1.65;;;;;;;11.42;87.71;101037.72;8400986;28;20123;-55
2023/12/19 10:50:31;;;;;;;3.60;1.40;;;;;;;11.39;87.67;101012.75;8405253;28;20041;-57
2023/12/19 10:54:35;;;;;;;5.68;1.23;;;;;;;11.42;88.24;100999.81;8403925;28;20540;-55
2023/12/19 10:58:39;;;;;;;8.37;1.57;;;;;;;11.21;88.75;100988.16;8402788;28;20040;-57
2023/12/19 11:06:59;;;;;;;5.93;1.60;;;;;;;11.44;87.76;100961.78;8407477;27;20484;-58
2023/12/19 11:11:23;;;;;;;11.27;1.60;;;;;;;11.36;87.71;100967.88;8400672;27;22626;-58
2023/12/19 11:15:27;;;;;;;12.25;2.35;;;;;;;11.28;88.34;100970.38;8394297;27;20297;-58
2023/12/19 11:19:33;;;;;;;10.82;2.47;;;;;;;11.34;88.74;100948.19;8390639;27;20044;-57
2023/12/19 11:24:13;;;;;;;11.45;1.85;;;;;;;11.28;88.81;100954.13;8398893;27;20225;-57
2023/12/19 11:28:14;;;;;;;5.88;1.17;;;;;;;11.21;90.50;100944.00;8383835;28;20121;-57
2023/12/19 11:36:44;;;;;;;8.52;1.13;;;;;;;11.24;91.04;100936.47;8414471;27;20443;-55
2023/12/19 11:44:56;;;;;;;11.05;2.13;;;;;;;11.34;89.56;100917.53;8388597;27;21067;-56
2023/12/19 11:48:57;;;;;;;6.72;1.92;;;;;;;11.36;88.90;100900.19;8370846;28;20360;-56
2023/12/19 11:52:57;;;;;;;10.10;2.00;;;;;;;11.45;88.33;100902.09;8369801;28;20124;-55
2023/12/19 11:56:59;;;;;;;7.07;1.70;;;;;;;11.48;88.71;100893.69;8387867;28;20403;-56
2023/12/19 12:01:02;;;;;;;8.05;2.67;;;;;;;11.54;88.65;100889.56;8380499;28;20106;-55
2023/12/19 12:09:19;;;;;;;7.45;1.73;;;;;;;11.69;88.87;100880.09;8408939;27;20550;-57
2023/12/19 12:13:20;;;;;;;12.32;1.52;;;;;;;12.01;88.81;100874.47;8401694;27;20032;-55
2023/12/19 12:17:20;;;;;;;6.72;1.35;;;;;;;12.17;86.41;100869.31;8389686;28;20506;-53
2023/12/19 12:21:23;;;;;;;4.80;1.20;;;;;;;12.11;86.02;100850.94;8400067;27;20040;-55
2023/12/19 12:25:23;;;;;;;3.88;1.20;;;;;;;12.01;86.36;100842.78;8398961;27;20091;-55
2023/12/19 12:29:35;;;;;;;4.88;1.20;;;;;;;11.89;86.23;100838.50;8402631;27;20040;-54
2023/12/19 12:33:36;;;;;;;3.85;1.10;;;;;;;11.87;86.13;100846.75;8397658;27;20040;-55
2023/12/19 12:37:37;;;;;;;2.78;0.90;;;;;;;11.79;86.86;100843.03;8397869;27;20043;-56
2023/12/19 12:41:38;;;;;;;3.22;1.02;;;;;;;11.68;87.38;100830.47;8397917;27;20109;-56
2023/12/19 12:45:39;;;;;;;5.57;1.05;;;;;;;11.55;88.21;100829.84;8401959;27;20081;-56
2023/12/19 12:49:39;;;;;;;6.15;1.23;;;;;;;11.45;89.33;100831.69;8397707;27;20052;-56
2023/12/19 12:53:40;;;;;;;2.75;1.00;;;;;;;11.43;89.88;100820.13;8396130;27;20071;-55
2023/12/19 12:57:40;;;;;;;3.63;1.15;;;;;;;11.40;89.40;100804.16;8393313;27;20495;-55
2023/12/19 13:01:47;;;;;;;4.75;1.08;;;;;;;11.52;89.16;100799.50;8391810;27;20059;-55
2023/12/19 13:05:47;;;;;;;5.85;1.60;;;;;;;11.67;87.12;100790.00;8385800;27;20562;-55
2023/12/19 13:09:48;;;;;;;2.85;1.10;;;;;;;11.65;88.04;100790.13;8391290;28;20413;-56
2023/12/19 13:13:49;;;;;;;2.83;1.42;;;;;;;11.60;88.05;100786.97;8377662;28;20044;-56
2023/12/19 13:17:50;;;;;;;7.00;1.40;;;;;;;11.45;89.09;100796.50;8383734;28;20286;-54
2023/12/19 13:21:51;;;;;;;6.57;1.85;;;;;;;11.42;88.21;100785.94;8369827;28;20049;-54
2023/12/19 13:25:53;;;;;;;5.03;1.85;;;;;;;11.38;89.06;100770.97;8366092;28;20308;-56
2023/12/19 13:29:54;;;;;;;3.03;2.45;;;;;;;11.45;88.56;100774.84;8381346;28;20097;-55
2023/12/19 13:33:55;;;;;;;5.85;2.58;;;;;;;11.55;88.06;100758.59;8390470;28;20036;-56
2023/12/19 13:37:55;;;;;;;8.15;1.40;;;;;;;11.64;88.41;100758.66;8389598;28;20041;-58
2023/12/19 13:41:58;;;;;;;2.45;1.20;;;;;;;11.59;89.71;100766.28;8389849;28;20052;-57
2023/12/19 13:46:00;;;;;;;2.53;1.55;;;;;;;11.48;90.35;100758.31;8389595;28;20583;-56
2023/12/19 13:50:01;;;;;;;6.55;1.33;;;;;;;11.31;92.41;100753.56;8389473;28;20351;-56
2023/12/19 13:54:03;;;;;;;3.13;1.40;;;;;;;11.45;92.22;100768.56;8389241;28;20102;-57
2023/12/19 13:58:03;;;;;;;5.60;1.83;;;;;;;11.32;93.77;100759.84;8388651;28;20044;-55
2023/12/19 14:02:05;;;;;;;1.90;1.50;;;;;;;11.15;94.70;100753.25;8381785;28;20047;-56
2023/12/19 14:06:06;;;;;;;2.88;1.40;;;;;;;11.05;96.38;100754.22;8406278;28;20409;-56
2023/12/19 14:10:08;;;;;;;3.45;2.03;;;;;;;11.02;96.90;100755.38;8385321;28;20074;-56
2023/12/19 14:14:09;;;;;;;4.82;1.92;;;;;;;11.00;98.37;100746.53;8386279;28;20036;-56
2023/12/19 14:18:09;;;;;;;5.70;1.40;;;;;;;11.03;99.98;100730.00;8386386;28;20480;-56
2023/12/19 14:22:10;;;;;;;5.55;2.45;;;;;;;11.06;100.00;100729.75;8381131;28;20063;-55
2023/12/19 14:26:10;;;;;;;10.15;2.92;;;;;;;11.13;100.00;100728.19;8386750;28;20051;-55
2023/12/19 14:30:11;;;;;;;6.40;2.22;;;;;;;11.19;99.90;100730.31;8382743;28;20044;-56
2023/12/19 14:34:11;;;;;;;6.40;1.95;;;;;;;11.24;100.00;100722.66;8386665;28;20048;-56
2023/12/19 14:38:13;;;;;;;5.03;1.25;;;;;;;11.24;100.00;100719.94;8386583;28;20186;-56
2023/12/19 14:42:21;;;;;;;9.13;1.92;;;;;;;11.17;100.00;100721.50;8386685;28;20036;-56
2023/12/19 14:46:23;;;;;;;5.35;1.80;;;;;;;11.08;100.00;100711.53;8384580;28;20036;-56
2023/12/19 14:50:23;;;;;;;7.22;1.55;;;;;;;10.96;100.00;100711.78;8381173;28;20033;-55
2023/12/19 14:54:24;;;;;;;5.57;1.63;;;;;;;10.84;100.00;100696.63;8386445;28;20040;-55
2023/12/19 14:58:26;;;;;;;3.08;1.33;;;;;;;10.74;100.00;100702.00;8386197;28;20040;-56
2023/12/19 15:02:26;;;;;;;3.80;1.70;;;;;;;10.70;100.00;100695.16;8385175;28;20051;-56
2023/12/19 15:06:27;;;;;;;5.60;2.00;;;;;;;10.64;100.00;100684.91;8382117;28;20055;-57
2023/12/19 15:10:27;;;;;;;2.88;1.63;;;;;;;10.60;100.00;100688.88;8384660;28;20443;-56
2023/12/19 15:14:28;;;;;;;3.35;1.60;;;;;;;10.55;100.00;100672.19;8385598;28;20545;-57
2023/12/19 15:18:28;;;;;;;5.20;2.03;;;;;;;10.50;100.00;100674.47;8385534;28;20090;-58
2023/12/19 15:22:29;;;;;;;5.25;1.70;;;;;;;10.43;100.00;100665.19;8385139;28;20411;-57
2023/12/19 15:26:29;;;;;;;3.65;1.60;;;;;;;10.37;100.00;100654.91;8384419;28;20095;-58
2023/12/19 15:30:30;;;;;;;3.45;1.63;;;;;;;10.38;100.00;100656.66;8383236;28;20076;-54
2023/12/19 15:34:31;;;;;;;4.57;1.75;;;;;;;10.32;100.00;100643.69;8381193;28;20098;-56
2023/12/19 15:38:32;;;;;;;2.80;1.65;;;;;;;10.35;100.00;100640.69;8383712;28;20356;-57
2023/12/19 15:42:32;;;;;;;6.35;1.88;;;;;;;10.31;100.00;100641.94;8384764;28;20043;-56
2023/12/19 15:46:33;;;;;;;4.20;1.52;;;;;;;10.31;100.00;100638.41;8382845;28;20044;-57
2023/12/19 15:50:33;;;;;;;4.90;1.80;;;;;;;10.33;100.00;100639.09;8366471;28;20564;-56
2023/12/19 15:54:34;;;;;;;3.38;2.05;;;;;;;10.30;100.00;100626.72;8383846;28;20040;-55
2023/12/19 15:58:36;;;;;;;3.78;1.80;;;;;;;10.26;100.00;100611.78;8380644;28;20315;-58
2023/12/19 16:02:37;;;;;;;4.22;1.70;;;;;;;10.26;100.00;100598.28;8383136;28;20091;-54
2023/12/19 16:06:38;;;;;;;2.70;1.60;;;;;;;10.26;100.00;100592.00;8381418;28;20036;-54
2023/12/19 16:10:38;;;;;;;2.80;1.67;;;;;;;10.29;100.00;100598.00;8383777;28;20054;-55
2023/12/19 16:14:40;;;;;;;5.50;2.10;;;;;;;10.29;100.00;100598.00;8383531;28;20048;-56
2023/12/19 16:18:42;;;;;;;3.92;2.25;;;;;;;10.27;100.00;100583.78;8382926;28;20071;-54
2023/12/19 16:22:42;;;;;;;7.82;1.98;;;;;;;10.25;100.00;100569.56;8380726;28;20064;-57
2023/12/19 16:26:43;;;;;;;3.80;2.05;;;;;;;10.21;100.00;100568.09;8379286;28;20048;-56
2023/12/19 16:30:44;;;;;;;4.28;1.98;;;;;;;10.24;100.00;100567.84;8382425;28;20051;-56
2023/12/19 16:34:47;;;;;;;3.42;1.85;;;;;;;10.23;100.00;100560.72;8383239;28;20440;-56
2023/12/19 16:38:48;;;;;;;6.78;2.95;;;;;;;10.18;100.00;100557.56;8382158;28;20044;-56
2023/12/19 16:42:48;;;;;;;5.10;2.58;;;;;;;10.21;100.00;100562.72;8381871;28;20033;-56
2023/12/19 16:46:49;;;;;;;6.15;2.65;;;;;;;10.23;100.00;100567.97;8382434;28;20561;-56
2023/12/19 16:50:49;;;;;;;3.40;2.22;;;;;;;10.23;100.00;100570.66;8380019;28;20123;-55
2023/12/19 16:54:49;;;;;;;9.07;4.60;;;;;;;10.24;100.00;100554.31;8386301;28;20045;-55
2023/12/19 16:58:50;;;;;;;6.32;3.45;;;;;;;10.26;100.00;100551.50;8390190;28;20044;-58
2023/12/19 17:02:50;;;;;;;6.60;3.72;;;;;;;10.26;100.00;100548.78;8387577;28;20135;-57
2023/12/19 17:06:53;;;;;;;5.55;3.55;;;;;;;10.27;100.00;100548.66;8390161;28;20126;-57
2023/12/19 17:10:53;;;;;;;8.40;6.68;;;;;;;10.30;100.00;100540.25;8391244;28;20044;-58
2023/12/19 17:14:53;;;;;;;6.40;3.10;;;;;;;10.35;100.00;100551.53;8390119;28;20052;-59
2023/12/19 17:18:54;;;;;;;5.95;3.65;;;;;;;10.46;100.00;100545.97;8387975;28;20662;-54
2023/12/19 17:22:54;;;;;;;8.70;4.80;;;;;;;10.38;100.00;100543.13;8370509;28;20110;-55
2023/12/19 17:26:55;;;;;;;5.47;3.45;;;;;;;10.46;100.00;100545.16;8385137;28;20135;-55
2023/12/19 17:30:56;;;;;;;2.80;2.22;;;;;;;10.50;100.00;100560.94;8387482;28;20110;-54
2023/12/19 17:34:56;;;;;;;5.60;2.70;;;;;;;10.44;100.00;100545.28;8389179;28;20044;-54
2023/12/19 17:38:57;;;;;;;4.07;2.70;;;;;;;10.37;100.00;100538.72;8388635;28;20044;-53
2023/12/19 17:42:58;;;;;;;3.40;2.42;;;;;;;10.32;100.00;100543.69;8385703;28;20043;-54
2023/12/19 17:46:58;;;;;;;3.35;2.67;;;;;;;10.42;100.00;100531.06;8386243;28;20048;-53
2023/12/19 17:51:00;;;;;;;5.40;3.88;;;;;;;10.41;100.00;100529.34;8389386;28;20107;-54
2023/12/19 17:55:00;;;;;;;7.43;3.53;;;;;;;10.43;100.00;100540.84;8389615;28;20053;-56
2023/12/19 17:59:06;;;;;;;4.72;3.60;;;;;;;10.45;100.00;100528.06;8389023;28;20032;-57
2023/12/19 18:03:07;;;;;;;7.13;4.78;;;;;;;10.43;100.00;100529.22;8403545;28;20384;-57
2023/12/19 18:07:07;;;;;;;4.70;3.70;;;;;;;10.47;100.00;100527.94;8388374;28;20041;-56
2023/12/19 18:11:07;;;;;;;15.60;11.55;;;;;;;10.44;100.00;100539.88;8388496;28;20036;-57
2023/12/19 18:15:08;;;;;;;11.43;6.20;;;;;;;10.46;100.00;100528.94;8385583;28;20410;-56
2023/12/19 18:19:08;;;;;;;8.95;6.10;;;;;;;10.39;100.00;100517.81;8415046;28;20044;-56
2023/12/19 18:23:09;;;;;;;16.10;8.95;;;;;;;10.44;100.00;100529.06;8417158;28;20072;-57
2023/12/19 18:27:09;;;;;;;6.38;1.60;;;;;;;10.95;100.00;100532.38;8419073;28;20048;-58
2023/12/19 18:31:10;;;;;;;7.03;4.47;;;;;;;11.21;100.00;100533.50;8421831;28;20409;-57
2023/12/19 18:35:11;;;;;;;4.90;2.58;;;;;;;11.29;100.00;100530.06;8419343;28;20512;-57
2023/12/19 18:39:12;;;;;;;3.15;2.05;;;;;;;11.30;100.00;100521.81;8418136;28;20066;-57
2023/12/19 18:43:12;;;;;;;3.78;2.35;;;;;;;11.37;100.00;100539.19;8418310;28;20044;-57
2023/12/19 18:47:13;;;;;;;3.47;1.50;;;;;;;11.38;100.00;100543.56;8420224;28;20043;-57
2023/12/19 18:51:13;;;;;;;3.15;1.88;;;;;;;11.43;100.00;100541.31;8421016;28;20051;-57
2023/12/19 18:55:14;;;;;;;2.80;1.42;;;;;;;11.44;100.00;100540.28;8420195;28;20449;-57
2023/12/19 18:59:15;;;;;;;1.75;1.10;;;;;;;11.42;100.00;100539.59;8420712;28;20072;-57